PWSweather.com
Personal Weather Stations
Station Observations
NAGEO265NE
Bedzin GrodziecPL 42-506

Bedzin GrodziecPL 42-506

Lat: 50.347, Lon: 19.079

Elevation: 948

Station Type: WH1080

http://www.meteo-grodziec.pl/

High Low Average
Temperature 86.7°F30.4°C 62.2°F16.8°C 69.8°F21.0°C
Dew Point 66.0°F18.9°C 59.9°F15.5°C 62.9°F17.2°C
Winds 11.0 mph 17.7 kmh Calm Calm 1.0 mph SSE1.6 kmh SSE
Wind Gusts 25.0 mph40.2 kmh -- 4.0 mph6.4 kmh
Humidity 96% 49% 80%
Pressure 30.13 in1020.3 mb 29.95 in1014.2 mb -
Precipitation 0.17 in4.3 mm - -
Hour Temp Dew Point Humidity Winds Wind Gusts Pressure Precip Precip Rate Daily Precip Total
12:00 AM 67.8°F19.9°C 61.2°F16.2°C 79% Calm Calm 1.0 mph1.6 kmh 29.96 in1014.6 mb 0.00 in0.0 mm 0.00 in0.0 mm 0.00 in0.0 mm
12:05 AM 68.2°F20.1°C 61.2°F16.2°C 78% Calm Calm 1.0 mph1.6 kmh 29.96 in1014.6 mb 0.00 in0.0 mm 0.00 in0.0 mm 0.00 in0.0 mm
12:10 AM 68.2°F20.1°C 61.2°F16.2°C 78% Calm Calm 1.0 mph1.6 kmh 29.96 in1014.6 mb 0.00 in0.0 mm 0.00 in0.0 mm 0.00 in0.0 mm
12:15 AM 68.0°F20.0°C 60.8°F16.0°C 78% Calm Calm -- 29.96 in1014.6 mb 0.00 in0.0 mm 0.00 in0.0 mm 0.00 in0.0 mm
12:20 AM 68.2°F20.1°C 61.3°F16.3°C 79% Calm Calm 2.0 mph3.2 kmh 29.96 in1014.6 mb 0.00 in0.0 mm 0.00 in0.0 mm 0.00 in0.0 mm
12:25 AM 67.8°F19.9°C 60.6°F15.9°C 78% Calm Calm 2.0 mph3.2 kmh 29.96 in1014.6 mb 0.00 in0.0 mm 0.00 in0.0 mm 0.00 in0.0 mm
12:30 AM 67.3°F19.6°C 60.4°F15.8°C 79% Calm Calm -- 29.96 in1014.6 mb 0.00 in0.0 mm 0.00 in0.0 mm 0.00 in0.0 mm
12:35 AM 66.7°F19.3°C 60.1°F15.6°C 79% Calm Calm -- 29.96 in1014.6 mb 0.00 in0.0 mm 0.00 in0.0 mm 0.00 in0.0 mm
12:40 AM 66.6°F19.2°C 60.1°F15.6°C 80% Calm Calm -- 29.96 in1014.6 mb 0.00 in0.0 mm 0.00 in0.0 mm 0.00 in0.0 mm
12:45 AM 66.0°F18.9°C 60.1°F15.6°C 81% Calm Calm -- 29.96 in1014.6 mb 0.00 in0.0 mm 0.00 in0.0 mm 0.00 in0.0 mm
12:50 AM 66.0°F18.9°C 60.3°F15.7°C 82% Calm Calm -- 29.96 in1014.6 mb 0.00 in0.0 mm 0.00 in0.0 mm 0.00 in0.0 mm
12:55 AM 66.4°F19.1°C 60.6°F15.9°C 82% Calm Calm 1.0 mph1.6 kmh 29.96 in1014.6 mb 0.00 in0.0 mm 0.00 in0.0 mm 0.00 in0.0 mm
01:00 AM 66.6°F19.2°C 60.8°F16.0°C 82% Calm Calm 1.0 mph1.6 kmh 29.96 in1014.6 mb 0.00 in0.0 mm 0.00 in0.0 mm 0.00 in0.0 mm
01:05 AM 66.7°F19.3°C 61.0°F16.1°C 82% Calm Calm 1.0 mph1.6 kmh 29.96 in1014.6 mb 0.00 in0.0 mm 0.00 in0.0 mm 0.00 in0.0 mm
01:10 AM 66.6°F19.2°C 60.6°F15.9°C 81% Calm Calm 1.0 mph1.6 kmh 29.96 in1014.6 mb 0.00 in0.0 mm 0.00 in0.0 mm 0.00 in0.0 mm
01:15 AM 66.4°F19.1°C 60.8°F16.0°C 82% Calm Calm -- 29.96 in1014.6 mb 0.00 in0.0 mm 0.00 in0.0 mm 0.00 in0.0 mm
01:20 AM 66.4°F19.1°C 60.8°F16.0°C 82% Calm Calm -- 29.96 in1014.6 mb 0.00 in0.0 mm 0.00 in0.0 mm 0.00 in0.0 mm
01:25 AM 66.6°F19.2°C 60.8°F16.0°C 82% Calm Calm -- 29.96 in1014.6 mb 0.00 in0.0 mm 0.00 in0.0 mm 0.00 in0.0 mm
01:30 AM 66.4°F19.1°C 60.6°F15.9°C 82% Calm Calm -- 29.96 in1014.6 mb 0.00 in0.0 mm 0.00 in0.0 mm 0.00 in0.0 mm
01:35 AM 66.0°F18.9°C 60.6°F15.9°C 83% Calm Calm -- 29.96 in1014.6 mb 0.00 in0.0 mm 0.00 in0.0 mm 0.00 in0.0 mm
01:40 AM 65.8°F18.8°C 60.6°F15.9°C 83% Calm Calm 1.0 mph1.6 kmh 29.96 in1014.6 mb 0.00 in0.0 mm 0.00 in0.0 mm 0.00 in0.0 mm
01:45 AM 65.8°F18.8°C 61.0°F16.1°C 84% Calm Calm 1.0 mph1.6 kmh 29.96 in1014.6 mb 0.00 in0.0 mm 0.00 in0.0 mm 0.00 in0.0 mm
01:50 AM 65.8°F18.8°C 61.0°F16.1°C 84% Calm Calm 1.0 mph1.6 kmh 29.95 in1014.2 mb 0.00 in0.0 mm 0.00 in0.0 mm 0.00 in0.0 mm
01:55 AM 65.8°F18.8°C 60.8°F16.0°C 84% Calm Calm -- 29.96 in1014.6 mb 0.00 in0.0 mm 0.00 in0.0 mm 0.00 in0.0 mm
02:00 AM 65.8°F18.8°C 60.8°F16.0°C 84% Calm Calm -- 29.96 in1014.6 mb 0.00 in0.0 mm 0.00 in0.0 mm 0.00 in0.0 mm
02:05 AM 65.8°F18.8°C 60.8°F16.0°C 84% Calm Calm -- 29.96 in1014.6 mb 0.00 in0.0 mm 0.00 in0.0 mm 0.00 in0.0 mm
02:10 AM 65.8°F18.8°C 61.2°F16.2°C 85% Calm Calm 1.0 mph1.6 kmh 29.95 in1014.2 mb 0.00 in0.0 mm 0.00 in0.0 mm 0.00 in0.0 mm
02:15 AM 66.0°F18.9°C 61.0°F16.1°C 84% Calm Calm 1.0 mph1.6 kmh 29.95 in1014.2 mb 0.00 in0.0 mm 0.00 in0.0 mm 0.00 in0.0 mm
02:20 AM 66.0°F18.9°C 61.0°F16.1°C 84% Calm Calm 1.0 mph1.6 kmh 29.96 in1014.6 mb 0.00 in0.0 mm 0.00 in0.0 mm 0.00 in0.0 mm
02:25 AM 65.8°F18.8°C 61.0°F16.1°C 84% Calm Calm 1.0 mph1.6 kmh 29.96 in1014.6 mb 0.00 in0.0 mm 0.00 in0.0 mm 0.00 in0.0 mm
02:30 AM 65.8°F18.8°C 61.2°F16.2°C 85% Calm Calm -- 29.96 in1014.6 mb 0.00 in0.0 mm 0.00 in0.0 mm 0.00 in0.0 mm
02:35 AM 65.7°F18.7°C 61.0°F16.1°C 85% Calm Calm -- 29.95 in1014.2 mb 0.00 in0.0 mm 0.00 in0.0 mm 0.00 in0.0 mm
02:40 AM 65.7°F18.7°C 61.0°F16.1°C 85% Calm Calm -- 29.95 in1014.2 mb 0.00 in0.0 mm 0.00 in0.0 mm 0.00 in0.0 mm
02:45 AM 65.7°F18.7°C 61.0°F16.1°C 85% Calm Calm 1.0 mph1.6 kmh 29.95 in1014.2 mb 0.00 in0.0 mm 0.00 in0.0 mm 0.00 in0.0 mm
02:50 AM 65.7°F18.7°C 61.0°F16.1°C 85% Calm Calm 1.0 mph1.6 kmh 29.95 in1014.2 mb 0.00 in0.0 mm 0.00 in0.0 mm 0.00 in0.0 mm
02:55 AM 65.7°F18.7°C 61.0°F16.1°C 85% Calm Calm 1.0 mph1.6 kmh 29.95 in1014.2 mb 0.00 in0.0 mm 0.00 in0.0 mm 0.00 in0.0 mm
03:00 AM 65.5°F18.6°C 61.2°F16.2°C 86% Calm Calm -- 29.95 in1014.2 mb 0.00 in0.0 mm 0.00 in0.0 mm 0.00 in0.0 mm
03:05 AM 65.5°F18.6°C 61.2°F16.2°C 86% Calm Calm 1.0 mph1.6 kmh 29.95 in1014.2 mb 0.00 in0.0 mm 0.00 in0.0 mm 0.00 in0.0 mm
03:10 AM 65.5°F18.6°C 61.2°F16.2°C 86% Calm Calm 1.0 mph1.6 kmh 29.95 in1014.2 mb 0.00 in0.0 mm 0.00 in0.0 mm 0.00 in0.0 mm
03:15 AM 65.5°F18.6°C 61.2°F16.2°C 86% Calm Calm 1.0 mph1.6 kmh 29.95 in1014.2 mb 0.00 in0.0 mm 0.00 in0.0 mm 0.00 in0.0 mm
03:20 AM 65.5°F18.6°C 61.2°F16.2°C 86% Calm Calm 1.0 mph1.6 kmh 29.95 in1014.2 mb 0.00 in0.0 mm 0.00 in0.0 mm 0.00 in0.0 mm
03:25 AM 65.5°F18.6°C 61.2°F16.2°C 86% Calm Calm 1.0 mph1.6 kmh 29.95 in1014.2 mb 0.00 in0.0 mm 0.00 in0.0 mm 0.00 in0.0 mm
03:30 AM 65.1°F18.4°C 61.0°F16.1°C 86% Calm Calm -- 29.95 in1014.2 mb 0.00 in0.0 mm 0.00 in0.0 mm 0.00 in0.0 mm
03:35 AM 65.1°F18.4°C 60.8°F16.0°C 86% Calm Calm -- 29.95 in1014.2 mb 0.00 in0.0 mm 0.00 in0.0 mm 0.00 in0.0 mm
03:40 AM 64.9°F18.3°C 60.6°F15.9°C 86% Calm Calm -- 29.95 in1014.2 mb 0.00 in0.0 mm 0.00 in0.0 mm 0.00 in0.0 mm
03:45 AM 64.9°F18.3°C 61.0°F16.1°C 87% Calm Calm -- 29.95 in1014.2 mb 0.00 in0.0 mm 0.00 in0.0 mm 0.00 in0.0 mm
03:50 AM 64.9°F18.3°C 61.0°F16.1°C 87% Calm Calm -- 29.95 in1014.2 mb 0.00 in0.0 mm 0.00 in0.0 mm 0.00 in0.0 mm
03:55 AM 64.9°F18.3°C 61.0°F16.1°C 87% Calm Calm -- 29.95 in1014.2 mb 0.00 in0.0 mm 0.00 in0.0 mm 0.00 in0.0 mm
04:00 AM 64.8°F18.2°C 60.8°F16.0°C 87% Calm Calm -- 29.95 in1014.2 mb 0.00 in0.0 mm 0.00 in0.0 mm 0.00 in0.0 mm
04:05 AM 64.9°F18.3°C 61.0°F16.1°C 87% Calm Calm -- 29.95 in1014.2 mb 0.00 in0.0 mm 0.00 in0.0 mm 0.00 in0.0 mm
04:10 AM 64.9°F18.3°C 61.0°F16.1°C 87% Calm Calm -- 29.95 in1014.2 mb 0.00 in0.0 mm 0.00 in0.0 mm 0.00 in0.0 mm
04:15 AM 65.1°F18.4°C 61.2°F16.2°C 87% Calm Calm -- 29.95 in1014.2 mb 0.00 in0.0 mm 0.00 in0.0 mm 0.00 in0.0 mm
04:20 AM 65.3°F18.5°C 61.3°F16.3°C 87% Calm Calm -- 29.95 in1014.2 mb 0.00 in0.0 mm 0.00 in0.0 mm 0.00 in0.0 mm
04:25 AM 65.5°F18.6°C 61.2°F16.2°C 86% Calm Calm 1.0 mph1.6 kmh 29.95 in1014.2 mb 0.00 in0.0 mm 0.00 in0.0 mm 0.00 in0.0 mm
04:30 AM 65.8°F18.8°C 61.5°F16.4°C 86% Calm Calm 1.0 mph1.6 kmh 29.96 in1014.6 mb 0.00 in0.0 mm 0.00 in0.0 mm 0.00 in0.0 mm
04:35 AM 66.0°F18.9°C 61.3°F16.3°C 85% 1.0 mph NW1.6 kmh NW 3.0 mph4.8 kmh 29.97 in1014.9 mb 0.00 in0.0 mm 0.00 in0.0 mm 0.00 in0.0 mm
04:40 AM 66.0°F18.9°C 61.5°F16.4°C 85% 1.0 mph NW1.6 kmh NW 3.0 mph4.8 kmh 29.98 in1015.2 mb 0.00 in0.0 mm 0.00 in0.0 mm 0.00 in0.0 mm
04:45 AM 66.0°F18.9°C 61.5°F16.4°C 85% 1.0 mph NW1.6 kmh NW 2.0 mph3.2 kmh 29.98 in1015.2 mb 0.00 in0.0 mm 0.00 in0.0 mm 0.00 in0.0 mm
04:50 AM 66.0°F18.9°C 61.3°F16.3°C 85% Calm Calm 2.0 mph3.2 kmh 29.98 in1015.2 mb 0.00 in0.0 mm 0.00 in0.0 mm 0.00 in0.0 mm
04:55 AM 65.8°F18.8°C 61.2°F16.2°C 85% Calm Calm 1.0 mph1.6 kmh 29.99 in1015.6 mb 0.00 in0.0 mm 0.00 in0.0 mm 0.00 in0.0 mm
05:00 AM 65.7°F18.7°C 61.3°F16.3°C 86% Calm Calm 5.0 mph8.0 kmh 29.99 in1015.6 mb 0.00 in0.0 mm 0.00 in0.0 mm 0.00 in0.0 mm
05:05 AM 65.7°F18.7°C 61.7°F16.5°C 87% 1.0 mph NNW1.6 kmh NNW 5.0 mph8.0 kmh 29.99 in1015.6 mb 0.00 in0.0 mm 0.00 in0.0 mm 0.00 in0.0 mm
05:10 AM 66.0°F18.9°C 61.7°F16.5°C 86% 1.0 mph NNW1.6 kmh NNW 4.0 mph6.4 kmh 30.00 in1015.9 mb 0.00 in0.0 mm 0.00 in0.0 mm 0.00 in0.0 mm
05:15 AM 66.4°F19.1°C 62.1°F16.7°C 86% 1.0 mph NW1.6 kmh NW 5.0 mph8.0 kmh 29.99 in1015.6 mb 0.00 in0.0 mm 0.00 in0.0 mm 0.00 in0.0 mm
05:20 AM 66.6°F19.2°C 61.9°F16.6°C 85% 1.0 mph NW1.6 kmh NW 5.0 mph8.0 kmh 29.99 in1015.6 mb 0.00 in0.0 mm 0.00 in0.0 mm 0.00 in0.0 mm
05:25 AM 66.7°F19.3°C 62.1°F16.7°C 85% 1.0 mph NNW1.6 kmh NNW 4.0 mph6.4 kmh 29.99 in1015.6 mb 0.00 in0.0 mm 0.00 in0.0 mm 0.00 in0.0 mm
05:30 AM 66.9°F19.4°C 62.4°F16.9°C 85% 1.0 mph NNW1.6 kmh NNW 5.0 mph8.0 kmh 29.99 in1015.6 mb 0.00 in0.0 mm 0.00 in0.0 mm 0.00 in0.0 mm
05:35 AM 67.3°F19.6°C 62.6°F17.0°C 85% 1.0 mph N1.6 kmh N 5.0 mph8.0 kmh 29.99 in1015.6 mb 0.00 in0.0 mm 0.00 in0.0 mm 0.00 in0.0 mm
05:40 AM 67.6°F19.8°C 62.6°F17.0°C 84% 1.0 mph N1.6 kmh N 8.0 mph12.9 kmh 29.99 in1015.6 mb 0.00 in0.0 mm 0.00 in0.0 mm 0.00 in0.0 mm
05:45 AM 68.0°F20.0°C 63.0°F17.2°C 84% 2.0 mph N3.2 kmh N 8.0 mph12.9 kmh 29.98 in1015.2 mb 0.00 in0.0 mm 0.00 in0.0 mm 0.00 in0.0 mm
05:50 AM 68.4°F20.2°C 63.0°F17.2°C 83% 3.0 mph N4.8 kmh N 7.0 mph11.3 kmh 29.99 in1015.6 mb 0.00 in0.0 mm 0.00 in0.0 mm 0.00 in0.0 mm
05:55 AM 68.7°F20.4°C 63.0°F17.2°C 82% 3.0 mph N4.8 kmh N 8.0 mph12.9 kmh 29.98 in1015.2 mb 0.00 in0.0 mm 0.00 in0.0 mm 0.00 in0.0 mm
06:00 AM 68.9°F20.5°C 62.8°F17.1°C 81% 3.0 mph NE4.8 kmh NE 8.0 mph12.9 kmh 29.98 in1015.2 mb 0.00 in0.0 mm 0.00 in0.0 mm 0.00 in0.0 mm
06:05 AM 69.1°F20.6°C 62.6°F17.0°C 80% 3.0 mph NE4.8 kmh NE 7.0 mph11.3 kmh 29.98 in1015.2 mb 0.00 in0.0 mm 0.00 in0.0 mm 0.00 in0.0 mm
06:10 AM 69.3°F20.7°C 62.4°F16.9°C 79% 4.0 mph NE6.4 kmh NE 11.0 mph17.7 kmh 29.97 in1014.9 mb 0.00 in0.0 mm 0.00 in0.0 mm 0.00 in0.0 mm
06:15 AM 69.6°F20.9°C 63.0°F17.2°C 79% 4.0 mph ENE6.4 kmh ENE 11.0 mph17.7 kmh 29.97 in1014.9 mb 0.00 in0.0 mm 0.00 in0.0 mm 0.00 in0.0 mm
06:20 AM 69.8°F21.0°C 62.6°F17.0°C 78% 4.0 mph ENE6.4 kmh ENE 11.0 mph17.7 kmh 29.97 in1014.9 mb 0.00 in0.0 mm 0.00 in0.0 mm 0.00 in0.0 mm
06:25 AM 70.2°F21.2°C 63.0°F17.2°C 78% 4.0 mph ENE6.4 kmh ENE 11.0 mph17.7 kmh 29.97 in1014.9 mb 0.00 in0.0 mm 0.00 in0.0 mm 0.00 in0.0 mm
06:30 AM 70.0°F21.1°C 62.8°F17.1°C 78% 4.0 mph ENE6.4 kmh ENE 11.0 mph17.7 kmh 29.97 in1014.9 mb 0.00 in0.0 mm 0.00 in0.0 mm 0.00 in0.0 mm
06:35 AM 70.3°F21.3°C 62.8°F17.1°C 77% 4.0 mph ENE6.4 kmh ENE 11.0 mph17.7 kmh 29.97 in1014.9 mb 0.00 in0.0 mm 0.00 in0.0 mm 0.00 in0.0 mm
06:40 AM 70.9°F21.6°C 63.0°F17.2°C 76% 3.0 mph ENE4.8 kmh ENE 7.0 mph11.3 kmh 29.97 in1014.9 mb 0.00 in0.0 mm 0.00 in0.0 mm 0.00 in0.0 mm
06:45 AM 70.9°F21.6°C 63.0°F17.2°C 76% 3.0 mph ENE4.8 kmh ENE 9.0 mph14.5 kmh 29.96 in1014.6 mb 0.00 in0.0 mm 0.00 in0.0 mm 0.00 in0.0 mm
06:50 AM 71.2°F21.8°C 63.0°F17.2°C 75% 4.0 mph ENE6.4 kmh ENE 9.0 mph14.5 kmh 29.96 in1014.6 mb 0.00 in0.0 mm 0.00 in0.0 mm 0.00 in0.0 mm
06:55 AM 71.8°F22.1°C 63.0°F17.2°C 74% 3.0 mph E4.8 kmh E 8.0 mph12.9 kmh 29.96 in1014.6 mb 0.00 in0.0 mm 0.00 in0.0 mm 0.00 in0.0 mm
07:00 AM 71.6°F22.0°C 63.0°F17.2°C 74% 3.0 mph E4.8 kmh E 8.0 mph12.9 kmh 29.96 in1014.6 mb 0.00 in0.0 mm 0.00 in0.0 mm 0.00 in0.0 mm
07:05 AM 71.8°F22.1°C 63.1°F17.3°C 74% 3.0 mph E4.8 kmh E 7.0 mph11.3 kmh 29.95 in1014.2 mb 0.00 in0.0 mm 0.00 in0.0 mm 0.00 in0.0 mm
07:10 AM 72.1°F22.3°C 63.5°F17.5°C 74% 2.0 mph E3.2 kmh E 7.0 mph11.3 kmh 29.95 in1014.2 mb 0.00 in0.0 mm 0.00 in0.0 mm 0.00 in0.0 mm
07:15 AM 72.3°F22.4°C 63.3°F17.4°C 73% 3.0 mph E4.8 kmh E 10.0 mph16.1 kmh 29.95 in1014.2 mb 0.00 in0.0 mm 0.00 in0.0 mm 0.00 in0.0 mm
07:20 AM 72.5°F22.5°C 63.3°F17.4°C 73% 2.0 mph E3.2 kmh E 10.0 mph16.1 kmh 29.95 in1014.2 mb 0.00 in0.0 mm 0.00 in0.0 mm 0.00 in0.0 mm
07:25 AM 72.7°F22.6°C 63.5°F17.5°C 73% 1.0 mph E1.6 kmh E 8.0 mph12.9 kmh 29.96 in1014.6 mb 0.00 in0.0 mm 0.00 in0.0 mm 0.00 in0.0 mm
07:30 AM 72.9°F22.7°C 63.3°F17.4°C 72% 1.0 mph S1.6 kmh S 5.0 mph8.0 kmh 29.96 in1014.6 mb 0.00 in0.0 mm 0.00 in0.0 mm 0.00 in0.0 mm
07:35 AM 72.9°F22.7°C 63.7°F17.6°C 73% 1.0 mph SSW1.6 kmh SSW 5.0 mph8.0 kmh 29.96 in1014.6 mb 0.00 in0.0 mm 0.00 in0.0 mm 0.00 in0.0 mm
07:40 AM 72.9°F22.7°C 63.3°F17.4°C 72% 1.0 mph SE1.6 kmh SE 5.0 mph8.0 kmh 29.96 in1014.6 mb 0.00 in0.0 mm 0.00 in0.0 mm 0.00 in0.0 mm
07:45 AM 73.0°F22.8°C 63.5°F17.5°C 72% 1.0 mph SSE1.6 kmh SSE 5.0 mph8.0 kmh 29.97 in1014.9 mb 0.00 in0.0 mm 0.00 in0.0 mm 0.00 in0.0 mm
07:50 AM 73.0°F22.8°C 63.5°F17.5°C 72% 1.0 mph SW1.6 kmh SW 5.0 mph8.0 kmh 29.97 in1014.9 mb 0.00 in0.0 mm 0.00 in0.0 mm 0.00 in0.0 mm
07:55 AM 73.2°F22.9°C 63.7°F17.6°C 72% 1.0 mph SSW1.6 kmh SSW 5.0 mph8.0 kmh 29.97 in1014.9 mb 0.00 in0.0 mm 0.00 in0.0 mm 0.00 in0.0 mm
08:00 AM 73.8°F23.2°C 63.9°F17.7°C 71% 1.0 mph E1.6 kmh E 6.0 mph9.7 kmh 29.97 in1014.9 mb 0.00 in0.0 mm 0.00 in0.0 mm 0.00 in0.0 mm
08:05 AM 74.1°F23.4°C 63.9°F17.7°C 70% 1.0 mph E1.6 kmh E 6.0 mph9.7 kmh 29.97 in1014.9 mb 0.00 in0.0 mm 0.00 in0.0 mm 0.00 in0.0 mm
08:10 AM 74.5°F23.6°C 63.7°F17.6°C 69% 1.0 mph E1.6 kmh E 5.0 mph8.0 kmh 29.98 in1015.2 mb 0.00 in0.0 mm 0.00 in0.0 mm 0.00 in0.0 mm
08:15 AM 74.5°F23.6°C 63.5°F17.5°C 69% 1.0 mph ENE1.6 kmh ENE 5.0 mph8.0 kmh 29.98 in1015.2 mb 0.00 in0.0 mm 0.00 in0.0 mm 0.00 in0.0 mm
08:20 AM 73.9°F23.3°C 63.7°F17.6°C 70% 1.0 mph E1.6 kmh E 5.0 mph8.0 kmh 29.98 in1015.2 mb 0.00 in0.0 mm 0.00 in0.0 mm 0.00 in0.0 mm
08:25 AM 73.9°F23.3°C 63.7°F17.6°C 70% 1.0 mph E1.6 kmh E 5.0 mph8.0 kmh 29.98 in1015.2 mb 0.00 in0.0 mm 0.00 in0.0 mm 0.00 in0.0 mm
08:30 AM 74.8°F23.8°C 64.0°F17.8°C 69% 1.0 mph E1.6 kmh E 5.0 mph8.0 kmh 29.98 in1015.2 mb 0.00 in0.0 mm 0.00 in0.0 mm 0.00 in0.0 mm
08:35 AM 75.9°F24.4°C 64.2°F17.9°C 67% Calm Calm 4.0 mph6.4 kmh 29.99 in1015.6 mb 0.00 in0.0 mm 0.00 in0.0 mm 0.00 in0.0 mm
08:40 AM 75.7°F24.3°C 63.7°F17.6°C 66% 1.0 mph SW1.6 kmh SW 5.0 mph8.0 kmh 29.99 in1015.6 mb 0.00 in0.0 mm 0.00 in0.0 mm 0.00 in0.0 mm
08:45 AM 76.1°F24.5°C 64.4°F18.0°C 67% 2.0 mph SW3.2 kmh SW 5.0 mph8.0 kmh 29.99 in1015.6 mb 0.00 in0.0 mm 0.00 in0.0 mm 0.00 in0.0 mm
08:50 AM 76.5°F24.7°C 64.2°F17.9°C 66% 1.0 mph SW1.6 kmh SW 5.0 mph8.0 kmh 29.99 in1015.6 mb 0.00 in0.0 mm 0.00 in0.0 mm 0.00 in0.0 mm
08:55 AM 77.2°F25.1°C 64.6°F18.1°C 65% 1.0 mph SSW1.6 kmh SSW 4.0 mph6.4 kmh 29.99 in1015.6 mb 0.00 in0.0 mm 0.00 in0.0 mm 0.00 in0.0 mm
09:00 AM 77.5°F25.3°C 64.4°F18.0°C 64% 1.0 mph SW1.6 kmh SW 6.0 mph9.7 kmh 29.98 in1015.2 mb 0.00 in0.0 mm 0.00 in0.0 mm 0.00 in0.0 mm
09:05 AM 77.7°F25.4°C 64.9°F18.3°C 65% 2.0 mph SW3.2 kmh SW 7.0 mph11.3 kmh 29.98 in1015.2 mb 0.00 in0.0 mm 0.00 in0.0 mm 0.00 in0.0 mm
09:10 AM 78.1°F25.6°C 64.4°F18.0°C 63% 2.0 mph SSW3.2 kmh SSW 7.0 mph11.3 kmh 29.98 in1015.2 mb 0.00 in0.0 mm 0.00 in0.0 mm 0.00 in0.0 mm
09:15 AM 78.3°F25.7°C 64.6°F18.1°C 63% 2.0 mph SSW3.2 kmh SSW 8.0 mph12.9 kmh 29.98 in1015.2 mb 0.00 in0.0 mm 0.00 in0.0 mm 0.00 in0.0 mm
09:20 AM 77.9°F25.5°C 64.8°F18.2°C 64% 3.0 mph SW4.8 kmh SW 8.0 mph12.9 kmh 29.98 in1015.2 mb 0.00 in0.0 mm 0.00 in0.0 mm 0.00 in0.0 mm
09:25 AM 78.4°F25.8°C 65.3°F18.5°C 64% 3.0 mph SW4.8 kmh SW 8.0 mph12.9 kmh 29.98 in1015.2 mb 0.00 in0.0 mm 0.00 in0.0 mm 0.00 in0.0 mm
09:30 AM 79.2°F26.2°C 64.9°F18.3°C 62% 2.0 mph SW3.2 kmh SW 8.0 mph12.9 kmh 29.98 in1015.2 mb 0.00 in0.0 mm 0.00 in0.0 mm 0.00 in0.0 mm
09:35 AM 79.2°F26.2°C 65.1°F18.4°C 62% 2.0 mph SW3.2 kmh SW 5.0 mph8.0 kmh 29.98 in1015.2 mb 0.00 in0.0 mm 0.00 in0.0 mm 0.00 in0.0 mm
09:40 AM 79.2°F26.2°C 65.5°F18.6°C 63% 2.0 mph SW3.2 kmh SW 5.0 mph8.0 kmh 29.98 in1015.2 mb 0.00 in0.0 mm 0.00 in0.0 mm 0.00 in0.0 mm
09:45 AM 79.7°F26.5°C 66.0°F18.9°C 63% 1.0 mph SW1.6 kmh SW 5.0 mph8.0 kmh 29.98 in1015.2 mb 0.00 in0.0 mm 0.00 in0.0 mm 0.00 in0.0 mm
09:50 AM 80.4°F26.9°C 65.3°F18.5°C 60% 1.0 mph SW1.6 kmh SW 5.0 mph8.0 kmh 29.98 in1015.2 mb 0.00 in0.0 mm 0.00 in0.0 mm 0.00 in0.0 mm
09:55 AM 80.4°F26.9°C 65.3°F18.5°C 60% 1.0 mph SW1.6 kmh SW 5.0 mph8.0 kmh 29.98 in1015.2 mb 0.00 in0.0 mm 0.00 in0.0 mm 0.00 in0.0 mm
10:00 AM 80.2°F26.8°C 65.1°F18.4°C 60% 2.0 mph SW3.2 kmh SW 6.0 mph9.7 kmh 29.98 in1015.2 mb 0.00 in0.0 mm 0.00 in0.0 mm 0.00 in0.0 mm
10:05 AM 81.0°F27.2°C 65.8°F18.8°C 60% 2.0 mph SW3.2 kmh SW 6.0 mph9.7 kmh 29.98 in1015.2 mb 0.00 in0.0 mm 0.00 in0.0 mm 0.00 in0.0 mm
10:10 AM 80.8°F27.1°C 65.5°F18.6°C 60% 1.0 mph SW1.6 kmh SW 6.0 mph9.7 kmh 29.99 in1015.6 mb 0.00 in0.0 mm 0.00 in0.0 mm 0.00 in0.0 mm
10:15 AM 81.1°F27.3°C 65.8°F18.8°C 60% 2.0 mph SW3.2 kmh SW 6.0 mph9.7 kmh 29.99 in1015.6 mb 0.00 in0.0 mm 0.00 in0.0 mm 0.00 in0.0 mm
10:20 AM 82.2°F27.9°C 66.0°F18.9°C 58% 1.0 mph W1.6 kmh W 4.0 mph6.4 kmh 29.99 in1015.6 mb 0.00 in0.0 mm 0.00 in0.0 mm 0.00 in0.0 mm
10:25 AM 82.2°F27.9°C 66.0°F18.9°C 58% 1.0 mph WSW1.6 kmh WSW 4.0 mph6.4 kmh 29.98 in1015.2 mb 0.00 in0.0 mm 0.00 in0.0 mm 0.00 in0.0 mm
10:30 AM 82.2°F27.9°C 65.5°F18.6°C 57% 2.0 mph SW3.2 kmh SW 5.0 mph8.0 kmh 29.98 in1015.2 mb 0.00 in0.0 mm 0.00 in0.0 mm 0.00 in0.0 mm
10:35 AM 82.6°F28.1°C 65.7°F18.7°C 57% 2.0 mph SW3.2 kmh SW 5.0 mph8.0 kmh 29.98 in1015.2 mb 0.00 in0.0 mm 0.00 in0.0 mm 0.00 in0.0 mm
10:40 AM 82.9°F28.3°C 66.0°F18.9°C 57% 1.0 mph SW1.6 kmh SW 4.0 mph6.4 kmh 29.98 in1015.2 mb 0.00 in0.0 mm 0.00 in0.0 mm 0.00 in0.0 mm
10:45 AM 83.7°F28.7°C 65.1°F18.4°C 54% 1.0 mph W1.6 kmh W 6.0 mph9.7 kmh 29.98 in1015.2 mb 0.00 in0.0 mm 0.00 in0.0 mm 0.00 in0.0 mm
10:50 AM 84.7°F29.3°C 65.3°F18.5°C 52% 2.0 mph WNW3.2 kmh WNW 7.0 mph11.3 kmh 29.98 in1015.2 mb 0.00 in0.0 mm 0.00 in0.0 mm 0.00 in0.0 mm
10:55 AM 85.3°F29.6°C 65.7°F18.7°C 52% 1.0 mph W1.6 kmh W 8.0 mph12.9 kmh 29.98 in1015.2 mb 0.00 in0.0 mm 0.00 in0.0 mm 0.00 in0.0 mm
11:00 AM 85.6°F29.8°C 65.5°F18.6°C 51% 2.0 mph WNW3.2 kmh WNW 8.0 mph12.9 kmh 29.98 in1015.2 mb 0.00 in0.0 mm 0.00 in0.0 mm 0.00 in0.0 mm
11:05 AM 85.6°F29.8°C 64.9°F18.3°C 50% 2.0 mph WSW3.2 kmh WSW 6.0 mph9.7 kmh 29.98 in1015.2 mb 0.00 in0.0 mm 0.00 in0.0 mm 0.00 in0.0 mm
11:10 AM 85.6°F29.8°C 65.5°F18.6°C 51% 2.0 mph WSW3.2 kmh WSW 6.0 mph9.7 kmh 29.98 in1015.2 mb 0.00 in0.0 mm 0.00 in0.0 mm 0.00 in0.0 mm
11:15 AM 85.3°F29.6°C 65.1°F18.4°C 51% 3.0 mph WSW4.8 kmh WSW 9.0 mph14.5 kmh 29.98 in1015.2 mb 0.00 in0.0 mm 0.00 in0.0 mm 0.00 in0.0 mm
11:20 AM 86.2°F30.1°C 65.3°F18.5°C 50% 2.0 mph WSW3.2 kmh WSW 9.0 mph14.5 kmh 29.98 in1015.2 mb 0.00 in0.0 mm 0.00 in0.0 mm 0.00 in0.0 mm
11:25 AM 86.7°F30.4°C 65.3°F18.5°C 49% 2.0 mph NW3.2 kmh NW 9.0 mph14.5 kmh 29.98 in1015.2 mb 0.00 in0.0 mm 0.00 in0.0 mm 0.00 in0.0 mm
11:30 AM 85.8°F29.9°C 64.4°F18.0°C 49% 3.0 mph NW4.8 kmh NW 9.0 mph14.5 kmh 29.98 in1015.2 mb 0.00 in0.0 mm 0.00 in0.0 mm 0.00 in0.0 mm
11:35 AM 85.3°F29.6°C 63.9°F17.7°C 49% 4.0 mph NW6.4 kmh NW 10.0 mph16.1 kmh 29.98 in1015.2 mb 0.00 in0.0 mm 0.00 in0.0 mm 0.00 in0.0 mm
11:40 AM 84.6°F29.2°C 63.9°F17.7°C 50% 3.0 mph NW4.8 kmh NW 10.0 mph16.1 kmh 29.97 in1014.9 mb 0.00 in0.0 mm 0.00 in0.0 mm 0.00 in0.0 mm
11:45 AM 84.2°F29.0°C 64.0°F17.8°C 51% 2.0 mph NW3.2 kmh NW 9.0 mph14.5 kmh 29.97 in1014.9 mb 0.00 in0.0 mm 0.00 in0.0 mm 0.00 in0.0 mm
11:50 AM 83.7°F28.7°C 64.2°F17.9°C 52% 2.0 mph W3.2 kmh W 8.0 mph12.9 kmh 29.97 in1014.9 mb 0.00 in0.0 mm 0.00 in0.0 mm 0.00 in0.0 mm
11:55 AM 83.1°F28.4°C 64.2°F17.9°C 53% 2.0 mph WNW3.2 kmh WNW 8.0 mph12.9 kmh 29.96 in1014.6 mb 0.00 in0.0 mm 0.00 in0.0 mm 0.00 in0.0 mm
12:00 PM 83.1°F28.4°C 64.2°F17.9°C 53% 2.0 mph NW3.2 kmh NW 6.0 mph9.7 kmh 29.97 in1014.9 mb 0.00 in0.0 mm 0.00 in0.0 mm 0.00 in0.0 mm
12:05 PM 82.8°F28.2°C 64.4°F18.0°C 54% 1.0 mph WSW1.6 kmh WSW 6.0 mph9.7 kmh 29.97 in1014.9 mb 0.00 in0.0 mm 0.00 in0.0 mm 0.00 in0.0 mm
12:10 PM 82.6°F28.1°C 64.2°F17.9°C 54% 1.0 mph WSW1.6 kmh WSW 6.0 mph9.7 kmh 29.98 in1015.2 mb 0.00 in0.0 mm 0.00 in0.0 mm 0.00 in0.0 mm
12:15 PM 82.2°F27.9°C 63.0°F17.2°C 52% 2.0 mph NW3.2 kmh NW 9.0 mph14.5 kmh 29.97 in1014.9 mb 0.00 in0.0 mm 0.00 in0.0 mm 0.00 in0.0 mm
12:20 PM 82.0°F27.8°C 62.8°F17.1°C 52% 3.0 mph NW4.8 kmh NW 11.0 mph17.7 kmh 29.97 in1014.9 mb 0.00 in0.0 mm 0.00 in0.0 mm 0.00 in0.0 mm
12:25 PM 81.5°F27.5°C 63.3°F17.4°C 54% 3.0 mph NW4.8 kmh NW 15.0 mph24.1 kmh 29.97 in1014.9 mb 0.00 in0.0 mm 0.00 in0.0 mm 0.00 in0.0 mm
12:30 PM 81.0°F27.2°C 62.8°F17.1°C 54% 5.0 mph NW8.0 kmh NW 15.0 mph24.1 kmh 29.98 in1015.2 mb 0.00 in0.0 mm 0.00 in0.0 mm 0.00 in0.0 mm
12:35 PM 80.8°F27.1°C 63.0°F17.2°C 55% 5.0 mph NW8.0 kmh NW 15.0 mph24.1 kmh 29.98 in1015.2 mb 0.00 in0.0 mm 0.00 in0.0 mm 0.00 in0.0 mm
12:40 PM 80.2°F26.8°C 63.1°F17.3°C 56% 5.0 mph NW8.0 kmh NW 13.0 mph20.9 kmh 29.99 in1015.6 mb 0.00 in0.0 mm 0.00 in0.0 mm 0.00 in0.0 mm
12:45 PM 80.2°F26.8°C 63.5°F17.5°C 57% 5.0 mph NW8.0 kmh NW 12.0 mph19.3 kmh 29.99 in1015.6 mb 0.00 in0.0 mm 0.00 in0.0 mm 0.00 in0.0 mm
12:50 PM 80.1°F26.7°C 63.5°F17.5°C 57% 3.0 mph NW4.8 kmh NW 12.0 mph19.3 kmh 30.00 in1015.9 mb 0.00 in0.0 mm 0.00 in0.0 mm 0.00 in0.0 mm
12:55 PM 80.1°F26.7°C 63.5°F17.5°C 57% 2.0 mph NW3.2 kmh NW 7.0 mph11.3 kmh 30.00 in1015.9 mb 0.00 in0.0 mm 0.00 in0.0 mm 0.00 in0.0 mm
01:00 PM 79.5°F26.4°C 63.5°F17.5°C 58% 4.0 mph NW6.4 kmh NW 22.0 mph35.4 kmh 30.00 in1015.9 mb 0.00 in0.0 mm 0.00 in0.0 mm 0.00 in0.0 mm
01:05 PM 78.3°F25.7°C 62.8°F17.1°C 59% 9.0 mph NW14.5 kmh NW 22.0 mph35.4 kmh 30.01 in1016.3 mb 0.00 in0.0 mm 0.00 in0.0 mm 0.00 in0.0 mm
01:10 PM 77.4°F25.2°C 61.9°F16.6°C 59% 11.0 mph NW17.7 kmh NW 25.0 mph40.2 kmh 30.02 in1016.6 mb 0.00 in0.0 mm 0.00 in0.0 mm 0.00 in0.0 mm
01:15 PM 76.8°F24.9°C 61.3°F16.3°C 59% 9.0 mph NW14.5 kmh NW 25.0 mph40.2 kmh 30.02 in1016.6 mb 0.00 in0.0 mm 0.00 in0.0 mm 0.00 in0.0 mm
01:20 PM 76.5°F24.7°C 61.0°F16.1°C 59% 8.0 mph NW12.9 kmh NW 17.0 mph27.4 kmh 30.03 in1016.9 mb 0.00 in0.0 mm 0.00 in0.0 mm 0.00 in0.0 mm
01:25 PM 76.1°F24.5°C 60.3°F15.7°C 58% 7.0 mph NW11.3 kmh NW 25.0 mph40.2 kmh 30.04 in1017.3 mb 0.00 in0.0 mm 0.00 in0.0 mm 0.00 in0.0 mm
01:30 PM 75.4°F24.1°C 59.9°F15.5°C 59% 7.0 mph NW11.3 kmh NW 25.0 mph40.2 kmh 30.05 in1017.6 mb 0.00 in0.0 mm 0.00 in0.0 mm 0.00 in0.0 mm
01:35 PM 73.8°F23.2°C 60.8°F16.0°C 64% 7.0 mph NW11.3 kmh NW 20.0 mph32.2 kmh 30.05 in1017.6 mb 0.00 in0.0 mm 0.00 in0.0 mm 0.00 in0.0 mm
01:40 PM 72.1°F22.3°C 60.6°F15.9°C 67% 7.0 mph NW11.3 kmh NW 13.0 mph20.9 kmh 30.06 in1017.9 mb 0.00 in0.0 mm 0.00 in0.0 mm 0.00 in0.0 mm
01:45 PM 70.5°F21.4°C 61.5°F16.4°C 73% 5.0 mph NW8.0 kmh NW 13.0 mph20.9 kmh 30.06 in1017.9 mb 0.02 in0.5 mm 0.24 in6.1 mm 0.02 in0.5 mm
01:50 PM 69.4°F20.8°C 61.5°F16.4°C 76% 4.0 mph NW6.4 kmh NW 10.0 mph16.1 kmh 30.07 in1018.3 mb 0.02 in0.5 mm 0.00 in0.0 mm 0.02 in0.5 mm
01:55 PM 68.4°F20.2°C 61.7°F16.5°C 79% 4.0 mph NW6.4 kmh NW 10.0 mph16.1 kmh 30.07 in1018.3 mb 0.05 in1.3 mm 0.36 in9.1 mm 0.05 in1.3 mm
02:00 PM 67.5°F19.7°C 61.9°F16.6°C 82% 3.0 mph NW4.8 kmh NW 9.0 mph14.5 kmh 30.07 in1018.3 mb 0.08 in2.0 mm 0.03 in0.8 mm 0.08 in2.0 mm
02:05 PM 66.9°F19.4°C 61.9°F16.6°C 84% 1.0 mph NW1.6 kmh NW 4.0 mph6.4 kmh 30.07 in1018.3 mb 0.09 in2.3 mm 0.12 in3.0 mm 0.09 in2.3 mm
02:10 PM 66.7°F19.3°C 62.8°F17.1°C 87% Calm Calm 4.0 mph6.4 kmh 30.07 in1018.3 mb 0.10 in2.5 mm 0.12 in3.0 mm 0.10 in2.5 mm
02:15 PM 66.6°F19.2°C 62.4°F16.9°C 87% Calm Calm -- 30.07 in1018.3 mb 0.12 in3.0 mm 0.24 in6.1 mm 0.12 in3.0 mm
02:20 PM 66.2°F19.0°C 62.6°F17.0°C 88% Calm Calm 1.0 mph1.6 kmh 30.07 in1018.3 mb 0.13 in3.3 mm 0.12 in3.0 mm 0.13 in3.3 mm
02:25 PM 66.0°F18.9°C 62.8°F17.1°C 89% Calm Calm 1.0 mph1.6 kmh 30.06 in1017.9 mb 0.13 in3.3 mm 0.00 in0.0 mm 0.13 in3.3 mm
02:30 PM 65.7°F18.7°C 62.2°F16.8°C 89% Calm Calm -- 30.06 in1017.9 mb 0.14 in3.6 mm 0.12 in3.0 mm 0.14 in3.6 mm
02:35 PM 65.5°F18.6°C 62.4°F16.9°C 90% Calm Calm 1.0 mph1.6 kmh 30.06 in1017.9 mb 0.14 in3.6 mm 0.00 in0.0 mm 0.14 in3.6 mm
02:40 PM 65.5°F18.6°C 62.4°F16.9°C 90% Calm Calm 2.0 mph3.2 kmh 30.06 in1017.9 mb 0.14 in3.6 mm 0.00 in0.0 mm 0.15 in3.8 mm
02:45 PM 65.5°F18.6°C 62.4°F16.9°C 90% Calm Calm 2.0 mph3.2 kmh 30.06 in1017.9 mb 0.13 in3.3 mm 0.00 in0.0 mm 0.15 in3.8 mm
02:50 PM 65.5°F18.6°C 62.8°F17.1°C 91% Calm Calm 2.0 mph3.2 kmh 30.05 in1017.6 mb 0.13 in3.3 mm 0.00 in0.0 mm 0.16 in4.1 mm
02:55 PM 65.7°F18.7°C 63.0°F17.2°C 91% Calm Calm -- 30.05 in1017.6 mb 0.10 in2.5 mm 0.00 in0.0 mm 0.16 in4.1 mm
03:00 PM 65.7°F18.7°C 63.0°F17.2°C 91% Calm Calm 2.0 mph3.2 kmh 30.07 in1018.3 mb 0.08 in2.0 mm 0.00 in0.0 mm 0.16 in4.1 mm
03:05 PM 65.7°F18.7°C 63.1°F17.3°C 92% Calm Calm 2.0 mph3.2 kmh 30.07 in1018.3 mb 0.06 in1.5 mm 0.00 in0.0 mm 0.16 in4.1 mm
03:10 PM 65.8°F18.8°C 63.5°F17.5°C 92% Calm Calm 1.0 mph1.6 kmh 30.07 in1018.3 mb 0.06 in1.5 mm 0.00 in0.0 mm 0.17 in4.3 mm
03:15 PM 65.8°F18.8°C 63.5°F17.5°C 92% Calm Calm 4.0 mph6.4 kmh 30.07 in1018.3 mb 0.05 in1.3 mm 0.00 in0.0 mm 0.17 in4.3 mm
03:20 PM 65.7°F18.7°C 63.5°F17.5°C 93% 1.0 mph SW1.6 kmh SW 4.0 mph6.4 kmh 30.07 in1018.3 mb 0.04 in1.0 mm 0.00 in0.0 mm 0.17 in4.3 mm
03:25 PM 65.5°F18.6°C 63.5°F17.5°C 93% 1.0 mph SW1.6 kmh SW 4.0 mph6.4 kmh 30.07 in1018.3 mb 0.03 in0.8 mm 0.00 in0.0 mm 0.17 in4.3 mm
03:30 PM 65.5°F18.6°C 63.5°F17.5°C 93% 1.0 mph SW1.6 kmh SW 4.0 mph6.4 kmh 30.07 in1018.3 mb 0.02 in0.5 mm 0.00 in0.0 mm 0.17 in4.3 mm
03:35 PM 65.5°F18.6°C 63.5°F17.5°C 93% 1.0 mph SW1.6 kmh SW 3.0 mph4.8 kmh 30.07 in1018.3 mb 0.02 in0.5 mm 0.00 in0.0 mm 0.17 in4.3 mm
03:40 PM 65.5°F18.6°C 63.5°F17.5°C 93% 1.0 mph SW1.6 kmh SW 4.0 mph6.4 kmh 30.07 in1018.3 mb 0.02 in0.5 mm 0.00 in0.0 mm 0.17 in4.3 mm
03:45 PM 65.5°F18.6°C 63.3°F17.4°C 93% 2.0 mph SW3.2 kmh SW 5.0 mph8.0 kmh 30.07 in1018.3 mb 0.02 in0.5 mm 0.00 in0.0 mm 0.17 in4.3 mm
03:50 PM 65.5°F18.6°C 63.3°F17.4°C 93% 1.0 mph SW1.6 kmh SW 5.0 mph8.0 kmh 30.07 in1018.3 mb 0.01 in0.3 mm 0.00 in0.0 mm 0.17 in4.3 mm
03:55 PM 65.5°F18.6°C 63.7°F17.6°C 94% 1.0 mph SW1.6 kmh SW 3.0 mph4.8 kmh 30.07 in1018.3 mb 0.01 in0.3 mm 0.00 in0.0 mm 0.17 in4.3 mm
04:00 PM 65.5°F18.6°C 63.7°F17.6°C 94% 1.0 mph SW1.6 kmh SW 4.0 mph6.4 kmh 30.07 in1018.3 mb 0.01 in0.3 mm 0.00 in0.0 mm 0.17 in4.3 mm
04:05 PM 65.5°F18.6°C 63.7°F17.6°C 94% 1.0 mph SW1.6 kmh SW 5.0 mph8.0 kmh 30.07 in1018.3 mb 0.01 in0.3 mm 0.00 in0.0 mm 0.17 in4.3 mm
04:10 PM 65.7°F18.7°C 63.9°F17.7°C 94% 1.0 mph SW1.6 kmh SW 5.0 mph8.0 kmh 30.07 in1018.3 mb 0.00 in0.0 mm 0.00 in0.0 mm 0.17 in4.3 mm
04:15 PM 65.7°F18.7°C 63.9°F17.7°C 94% 1.0 mph SW1.6 kmh SW 4.0 mph6.4 kmh 30.08 in1018.6 mb 0.00 in0.0 mm 0.00 in0.0 mm 0.17 in4.3 mm
04:20 PM 65.8°F18.8°C 64.0°F17.8°C 94% 1.0 mph SW1.6 kmh SW 5.0 mph8.0 kmh 30.08 in1018.6 mb 0.00 in0.0 mm 0.00 in0.0 mm 0.17 in4.3 mm
04:25 PM 66.0°F18.9°C 64.2°F17.9°C 94% 1.0 mph SW1.6 kmh SW 5.0 mph8.0 kmh 30.07 in1018.3 mb 0.00 in0.0 mm 0.00 in0.0 mm 0.17 in4.3 mm
04:30 PM 66.7°F19.3°C 64.9°F18.3°C 94% 1.0 mph SW1.6 kmh SW 4.0 mph6.4 kmh 30.07 in1018.3 mb 0.00 in0.0 mm 0.00 in0.0 mm 0.17 in4.3 mm
04:35 PM 67.1°F19.5°C 65.3°F18.5°C 94% 1.0 mph SW1.6 kmh SW 4.0 mph6.4 kmh 30.07 in1018.3 mb 0.00 in0.0 mm 0.00 in0.0 mm 0.17 in4.3 mm
04:40 PM 67.5°F19.7°C 65.3°F18.5°C 93% 1.0 mph SW1.6 kmh SW 4.0 mph6.4 kmh 30.07 in1018.3 mb 0.00 in0.0 mm 0.00 in0.0 mm 0.17 in4.3 mm
04:45 PM 67.5°F19.7°C 64.8°F18.2°C 91% 3.0 mph SW4.8 kmh SW 8.0 mph12.9 kmh 30.07 in1018.3 mb 0.00 in0.0 mm 0.00 in0.0 mm 0.17 in4.3 mm
04:50 PM 68.2°F20.1°C 65.3°F18.5°C 91% 3.0 mph SW4.8 kmh SW 8.0 mph12.9 kmh 30.07 in1018.3 mb 0.00 in0.0 mm 0.00 in0.0 mm 0.17 in4.3 mm
04:55 PM 68.4°F20.2°C 65.3°F18.5°C 90% 2.0 mph SW3.2 kmh SW 7.0 mph11.3 kmh 30.07 in1018.3 mb 0.00 in0.0 mm 0.00 in0.0 mm 0.17 in4.3 mm
05:00 PM 68.5°F20.3°C 65.3°F18.5°C 89% 2.0 mph SW3.2 kmh SW 5.0 mph8.0 kmh 30.07 in1018.3 mb 0.00 in0.0 mm 0.00 in0.0 mm 0.17 in4.3 mm
05:05 PM 68.9°F20.5°C 65.1°F18.4°C 88% 2.0 mph SW3.2 kmh SW 5.0 mph8.0 kmh 30.07 in1018.3 mb 0.00 in0.0 mm 0.00 in0.0 mm 0.17 in4.3 mm
05:10 PM 69.3°F20.7°C 65.1°F18.4°C 87% 2.0 mph SW3.2 kmh SW 4.0 mph6.4 kmh 30.07 in1018.3 mb 0.00 in0.0 mm 0.00 in0.0 mm 0.17 in4.3 mm
05:15 PM 69.3°F20.7°C 64.8°F18.2°C 86% 2.0 mph SW3.2 kmh SW 5.0 mph8.0 kmh 30.07 in1018.3 mb 0.00 in0.0 mm 0.00 in0.0 mm 0.17 in4.3 mm
05:20 PM 69.3°F20.7°C 64.9°F18.3°C 86% 2.0 mph SW3.2 kmh SW 5.0 mph8.0 kmh 30.07 in1018.3 mb 0.00 in0.0 mm 0.00 in0.0 mm 0.17 in4.3 mm
05:25 PM 69.4°F20.8°C 64.8°F18.2°C 85% 2.0 mph SW3.2 kmh SW 6.0 mph9.7 kmh 30.07 in1018.3 mb 0.00 in0.0 mm 0.00 in0.0 mm 0.17 in4.3 mm
05:30 PM 69.6°F20.9°C 64.9°F18.3°C 85% 2.0 mph SW3.2 kmh SW 6.0 mph9.7 kmh 30.07 in1018.3 mb 0.00 in0.0 mm 0.00 in0.0 mm 0.17 in4.3 mm
05:35 PM 69.6°F20.9°C 64.9°F18.3°C 85% 1.0 mph SW1.6 kmh SW 4.0 mph6.4 kmh 30.07 in1018.3 mb 0.00 in0.0 mm 0.00 in0.0 mm 0.17 in4.3 mm
05:40 PM 69.4°F20.8°C 64.8°F18.2°C 85% 1.0 mph SW1.6 kmh SW 4.0 mph6.4 kmh 30.07 in1018.3 mb 0.00 in0.0 mm 0.00 in0.0 mm 0.17 in4.3 mm
05:45 PM 69.1°F20.6°C 64.6°F18.1°C 86% 2.0 mph SW3.2 kmh SW 5.0 mph8.0 kmh 30.07 in1018.3 mb 0.00 in0.0 mm 0.00 in0.0 mm 0.17 in4.3 mm
05:50 PM 68.7°F20.4°C 64.4°F18.0°C 86% 1.0 mph SW1.6 kmh SW 5.0 mph8.0 kmh 30.07 in1018.3 mb 0.00 in0.0 mm 0.00 in0.0 mm 0.17 in4.3 mm
05:55 PM 68.7°F20.4°C 64.8°F18.2°C 87% 1.0 mph SW1.6 kmh SW 5.0 mph8.0 kmh 30.07 in1018.3 mb 0.00 in0.0 mm 0.00 in0.0 mm 0.17 in4.3 mm
06:00 PM 68.7°F20.4°C 64.4°F18.0°C 86% 2.0 mph SW3.2 kmh SW 5.0 mph8.0 kmh 30.07 in1018.3 mb 0.00 in0.0 mm 0.00 in0.0 mm 0.17 in4.3 mm
06:05 PM 68.7°F20.4°C 64.4°F18.0°C 86% 1.0 mph SW1.6 kmh SW 5.0 mph8.0 kmh 30.07 in1018.3 mb 0.00 in0.0 mm 0.00 in0.0 mm 0.17 in4.3 mm
06:10 PM 68.7°F20.4°C 64.4°F18.0°C 86% 1.0 mph SW1.6 kmh SW 5.0 mph8.0 kmh 30.07 in1018.3 mb 0.00 in0.0 mm 0.00 in0.0 mm 0.17 in4.3 mm
06:15 PM 68.7°F20.4°C 64.4°F18.0°C 86% 1.0 mph SW1.6 kmh SW 4.0 mph6.4 kmh 30.07 in1018.3 mb 0.00 in0.0 mm 0.00 in0.0 mm 0.17 in4.3 mm
06:20 PM 68.7°F20.4°C 64.4°F18.0°C 86% 2.0 mph SW3.2 kmh SW 5.0 mph8.0 kmh 30.07 in1018.3 mb 0.00 in0.0 mm 0.00 in0.0 mm 0.17 in4.3 mm
06:25 PM 68.5°F20.3°C 64.6°F18.1°C 87% 2.0 mph SW3.2 kmh SW 6.0 mph9.7 kmh 30.07 in1018.3 mb 0.00 in0.0 mm 0.00 in0.0 mm 0.17 in4.3 mm
06:30 PM 68.5°F20.3°C 64.4°F18.0°C 87% 2.0 mph SW3.2 kmh SW 6.0 mph9.7 kmh 30.07 in1018.3 mb 0.00 in0.0 mm 0.00 in0.0 mm 0.17 in4.3 mm
06:35 PM 68.4°F20.2°C 64.4°F18.0°C 87% 1.0 mph SW1.6 kmh SW 5.0 mph8.0 kmh 30.07 in1018.3 mb 0.00 in0.0 mm 0.00 in0.0 mm 0.17 in4.3 mm
06:40 PM 68.2°F20.1°C 64.2°F17.9°C 87% 1.0 mph SW1.6 kmh SW 5.0 mph8.0 kmh 30.07 in1018.3 mb 0.00 in0.0 mm 0.00 in0.0 mm 0.17 in4.3 mm
06:45 PM 68.2°F20.1°C 64.0°F17.8°C 87% 2.0 mph SW3.2 kmh SW 5.0 mph8.0 kmh 30.07 in1018.3 mb 0.00 in0.0 mm 0.00 in0.0 mm 0.17 in4.3 mm
06:50 PM 67.8°F19.9°C 64.2°F17.9°C 88% 1.0 mph SW1.6 kmh SW 4.0 mph6.4 kmh 30.07 in1018.3 mb 0.00 in0.0 mm 0.00 in0.0 mm 0.17 in4.3 mm
06:55 PM 67.6°F19.8°C 63.9°F17.7°C 88% 1.0 mph SW1.6 kmh SW 4.0 mph6.4 kmh 30.07 in1018.3 mb 0.00 in0.0 mm 0.00 in0.0 mm 0.17 in4.3 mm
07:00 PM 67.5°F19.7°C 63.9°F17.7°C 88% 1.0 mph SW1.6 kmh SW 3.0 mph4.8 kmh 30.07 in1018.3 mb 0.00 in0.0 mm 0.00 in0.0 mm 0.17 in4.3 mm
07:05 PM 67.3°F19.6°C 63.9°F17.7°C 89% 1.0 mph SW1.6 kmh SW 3.0 mph4.8 kmh 30.07 in1018.3 mb 0.00 in0.0 mm 0.00 in0.0 mm 0.17 in4.3 mm
07:10 PM 67.1°F19.5°C 63.7°F17.6°C 89% Calm Calm 3.0 mph4.8 kmh 30.07 in1018.3 mb 0.00 in0.0 mm 0.00 in0.0 mm 0.17 in4.3 mm
07:15 PM 66.9°F19.4°C 63.7°F17.6°C 89% Calm Calm 1.0 mph1.6 kmh 30.07 in1018.3 mb 0.00 in0.0 mm 0.00 in0.0 mm 0.17 in4.3 mm
07:20 PM 66.7°F19.3°C 63.9°F17.7°C 90% Calm Calm 1.0 mph1.6 kmh 30.07 in1018.3 mb 0.00 in0.0 mm 0.00 in0.0 mm 0.17 in4.3 mm
07:25 PM 66.6°F19.2°C 63.5°F17.5°C 90% Calm Calm 1.0 mph1.6 kmh 30.07 in1018.3 mb 0.00 in0.0 mm 0.00 in0.0 mm 0.17 in4.3 mm
07:30 PM 66.6°F19.2°C 63.9°F17.7°C 91% Calm Calm 1.0 mph1.6 kmh 30.07 in1018.3 mb 0.00 in0.0 mm 0.00 in0.0 mm 0.17 in4.3 mm
07:35 PM 66.4°F19.1°C 63.7°F17.6°C 91% Calm Calm 1.0 mph1.6 kmh 30.07 in1018.3 mb 0.00 in0.0 mm 0.00 in0.0 mm 0.17 in4.3 mm
07:40 PM 66.4°F19.1°C 63.7°F17.6°C 91% Calm Calm -- 30.08 in1018.6 mb 0.00 in0.0 mm 0.00 in0.0 mm 0.17 in4.3 mm
07:45 PM 66.0°F18.9°C 63.3°F17.4°C 91% Calm Calm -- 30.08 in1018.6 mb 0.00 in0.0 mm 0.00 in0.0 mm 0.17 in4.3 mm
07:50 PM 65.8°F18.8°C 63.5°F17.5°C 92% Calm Calm -- 30.08 in1018.6 mb 0.00 in0.0 mm 0.00 in0.0 mm 0.17 in4.3 mm
07:55 PM 65.7°F18.7°C 63.1°F17.3°C 92% Calm Calm -- 30.08 in1018.6 mb 0.00 in0.0 mm 0.00 in0.0 mm 0.17 in4.3 mm
08:00 PM 65.5°F18.6°C 63.0°F17.2°C 92% Calm Calm -- 30.08 in1018.6 mb 0.00 in0.0 mm 0.00 in0.0 mm 0.17 in4.3 mm
08:05 PM 65.5°F18.6°C 63.3°F17.4°C 93% Calm Calm -- 30.09 in1019.0 mb 0.00 in0.0 mm 0.00 in0.0 mm 0.17 in4.3 mm
08:10 PM 65.1°F18.4°C 63.0°F17.2°C 93% Calm Calm -- 30.09 in1019.0 mb 0.00 in0.0 mm 0.00 in0.0 mm 0.17 in4.3 mm
08:15 PM 64.9°F18.3°C 62.8°F17.1°C 93% Calm Calm -- 30.09 in1019.0 mb 0.00 in0.0 mm 0.00 in0.0 mm 0.17 in4.3 mm
08:20 PM 64.8°F18.2°C 62.6°F17.0°C 93% Calm Calm -- 30.09 in1019.0 mb 0.00 in0.0 mm 0.00 in0.0 mm 0.17 in4.3 mm
08:25 PM 64.6°F18.1°C 62.6°F17.0°C 93% Calm Calm -- 30.09 in1019.0 mb 0.00 in0.0 mm 0.00 in0.0 mm 0.17 in4.3 mm
08:30 PM 64.6°F18.1°C 62.6°F17.0°C 93% Calm Calm -- 30.09 in1019.0 mb 0.00 in0.0 mm 0.00 in0.0 mm 0.17 in4.3 mm
08:35 PM 64.6°F18.1°C 62.8°F17.1°C 94% Calm Calm -- 30.09 in1019.0 mb 0.00 in0.0 mm 0.00 in0.0 mm 0.17 in4.3 mm
08:40 PM 64.2°F17.9°C 62.6°F17.0°C 94% Calm Calm -- 30.09 in1019.0 mb 0.00 in0.0 mm 0.00 in0.0 mm 0.17 in4.3 mm
08:45 PM 64.0°F17.8°C 62.4°F16.9°C 94% Calm Calm -- 30.09 in1019.0 mb 0.00 in0.0 mm 0.00 in0.0 mm 0.17 in4.3 mm
08:50 PM 64.0°F17.8°C 62.2°F16.8°C 94% Calm Calm -- 30.09 in1019.0 mb 0.00 in0.0 mm 0.00 in0.0 mm 0.17 in4.3 mm
08:55 PM 64.0°F17.8°C 62.2°F16.8°C 94% Calm Calm -- 30.09 in1019.0 mb 0.00 in0.0 mm 0.00 in0.0 mm 0.17 in4.3 mm
09:00 PM 63.9°F17.7°C 62.1°F16.7°C 94% Calm Calm -- 30.09 in1019.0 mb 0.00 in0.0 mm 0.00 in0.0 mm 0.17 in4.3 mm
09:05 PM 64.0°F17.8°C 62.2°F16.8°C 94% Calm Calm -- 30.09 in1019.0 mb 0.00 in0.0 mm 0.00 in0.0 mm 0.17 in4.3 mm
09:10 PM 64.0°F17.8°C 62.4°F16.9°C 94% Calm Calm -- 30.09 in1019.0 mb 0.00 in0.0 mm 0.00 in0.0 mm 0.17 in4.3 mm
09:15 PM 64.0°F17.8°C 62.6°F17.0°C 95% Calm Calm -- 30.09 in1019.0 mb 0.00 in0.0 mm 0.00 in0.0 mm 0.17 in4.3 mm
09:20 PM 64.2°F17.9°C 62.8°F17.1°C 95% Calm Calm 1.0 mph1.6 kmh 30.09 in1019.0 mb 0.00 in0.0 mm 0.00 in0.0 mm 0.17 in4.3 mm
09:25 PM 64.2°F17.9°C 62.8°F17.1°C 95% Calm Calm 1.0 mph1.6 kmh 30.10 in1019.3 mb 0.00 in0.0 mm 0.00 in0.0 mm 0.17 in4.3 mm
09:30 PM 64.2°F17.9°C 62.8°F17.1°C 95% Calm Calm -- 30.10 in1019.3 mb 0.00 in0.0 mm 0.00 in0.0 mm 0.17 in4.3 mm
09:35 PM 64.0°F17.8°C 62.6°F17.0°C 95% Calm Calm -- 30.11 in1019.6 mb 0.00 in0.0 mm 0.00 in0.0 mm 0.17 in4.3 mm
09:40 PM 64.0°F17.8°C 62.6°F17.0°C 95% Calm Calm -- 30.11 in1019.6 mb 0.00 in0.0 mm 0.00 in0.0 mm 0.17 in4.3 mm
09:45 PM 63.9°F17.7°C 62.4°F16.9°C 95% Calm Calm -- 30.11 in1019.6 mb 0.00 in0.0 mm 0.00 in0.0 mm 0.17 in4.3 mm
09:50 PM 63.9°F17.7°C 62.4°F16.9°C 95% Calm Calm -- 30.11 in1019.6 mb 0.00 in0.0 mm 0.00 in0.0 mm 0.17 in4.3 mm
09:55 PM 63.9°F17.7°C 62.4°F16.9°C 95% Calm Calm -- 30.11 in1019.6 mb 0.00 in0.0 mm 0.00 in0.0 mm 0.17 in4.3 mm
10:00 PM 63.9°F17.7°C 62.4°F16.9°C 95% Calm Calm -- 30.11 in1019.6 mb 0.00 in0.0 mm 0.00 in0.0 mm 0.17 in4.3 mm
10:05 PM 63.9°F17.7°C 62.4°F16.9°C 95% Calm Calm -- 30.11 in1019.6 mb 0.00 in0.0 mm 0.00 in0.0 mm 0.17 in4.3 mm
10:10 PM 63.7°F17.6°C 62.2°F16.8°C 95% Calm Calm -- 30.12 in1020.0 mb 0.00 in0.0 mm 0.00 in0.0 mm 0.17 in4.3 mm
10:15 PM 63.7°F17.6°C 62.2°F16.8°C 95% Calm Calm -- 30.12 in1020.0 mb 0.00 in0.0 mm 0.00 in0.0 mm 0.17 in4.3 mm
10:20 PM 63.5°F17.5°C 62.1°F16.7°C 95% Calm Calm -- 30.12 in1020.0 mb 0.00 in0.0 mm 0.00 in0.0 mm 0.17 in4.3 mm
10:25 PM 63.3°F17.4°C 61.9°F16.6°C 95% Calm Calm -- 30.12 in1020.0 mb 0.00 in0.0 mm 0.00 in0.0 mm 0.17 in4.3 mm
10:30 PM 63.1°F17.3°C 61.7°F16.5°C 95% Calm Calm -- 30.12 in1020.0 mb 0.00 in0.0 mm 0.00 in0.0 mm 0.17 in4.3 mm
10:35 PM 63.0°F17.2°C 61.5°F16.4°C 95% Calm Calm -- 30.12 in1020.0 mb 0.00 in0.0 mm 0.00 in0.0 mm 0.17 in4.3 mm
10:40 PM 63.0°F17.2°C 61.5°F16.4°C 95% Calm Calm -- 30.12 in1020.0 mb 0.00 in0.0 mm 0.00 in0.0 mm 0.17 in4.3 mm
10:45 PM 63.0°F17.2°C 61.5°F16.4°C 95% Calm Calm -- 30.12 in1020.0 mb 0.00 in0.0 mm 0.00 in0.0 mm 0.17 in4.3 mm
10:50 PM 62.8°F17.1°C 61.3°F16.3°C 95% Calm Calm -- 30.13 in1020.3 mb 0.00 in0.0 mm 0.00 in0.0 mm 0.17 in4.3 mm
10:55 PM 62.8°F17.1°C 61.2°F16.2°C 95% Calm Calm -- 30.13 in1020.3 mb 0.00 in0.0 mm 0.00 in0.0 mm 0.17 in4.3 mm
11:00 PM 62.6°F17.0°C 61.2°F16.2°C 95% Calm Calm -- 30.12 in1020.0 mb 0.00 in0.0 mm 0.00 in0.0 mm 0.14 in3.6 mm
11:05 PM 62.4°F16.9°C 61.0°F16.1°C 95% Calm Calm -- 30.13 in1020.3 mb 0.00 in0.0 mm 0.00 in0.0 mm 0.14 in3.6 mm
11:10 PM 62.6°F17.0°C 61.5°F16.4°C 96% Calm Calm -- 30.13 in1020.3 mb 0.00 in0.0 mm 0.00 in0.0 mm 0.14 in3.6 mm
11:15 PM 62.6°F17.0°C 61.5°F16.4°C 96% Calm Calm -- 30.13 in1020.3 mb 0.00 in0.0 mm 0.00 in0.0 mm 0.14 in3.6 mm
11:20 PM 63.0°F17.2°C 61.7°F16.5°C 96% Calm Calm -- 30.13 in1020.3 mb 0.00 in0.0 mm 0.00 in0.0 mm 0.14 in3.6 mm
11:25 PM 63.1°F17.3°C 62.1°F16.7°C 96% Calm Calm -- 30.13 in1020.3 mb 0.00 in0.0 mm 0.00 in0.0 mm 0.14 in3.6 mm
11:30 PM 63.0°F17.2°C 61.9°F16.6°C 96% Calm Calm -- 30.13 in1020.3 mb 0.00 in0.0 mm 0.00 in0.0 mm 0.14 in3.6 mm
11:35 PM 62.8°F17.1°C 61.7°F16.5°C 96% Calm Calm -- 30.13 in1020.3 mb 0.00 in0.0 mm 0.00 in0.0 mm 0.14 in3.6 mm
11:40 PM 62.4°F16.9°C 61.3°F16.3°C 96% Calm Calm -- 30.13 in1020.3 mb 0.00 in0.0 mm 0.00 in0.0 mm 0.14 in3.6 mm
11:45 PM 62.4°F16.9°C 61.3°F16.3°C 96% Calm Calm -- 30.13 in1020.3 mb 0.00 in0.0 mm 0.00 in0.0 mm 0.14 in3.6 mm
11:50 PM 62.4°F16.9°C 61.2°F16.2°C 96% Calm Calm -- 30.13 in1020.3 mb 0.00 in0.0 mm 0.00 in0.0 mm 0.14 in3.6 mm
11:55 PM 62.2°F16.8°C 61.0°F16.1°C 96% Calm Calm -- 30.13 in1020.3 mb 0.00 in0.0 mm 0.00 in0.0 mm 0.14 in3.6 mm